createdAt,value
2023-04-20T19:07:23.335Z,70.34
2023-04-20T19:12:28.040Z,73.17
2023-04-20T19:17:32.516Z,75.51
2023-04-20T19:22:38.339Z,78.27
2023-04-20T19:27:42.607Z,80.29
2023-04-20T19:32:47.101Z,81.23
2023-04-20T19:37:52.909Z,82.49
2023-04-20T19:42:58.341Z,83.77
2023-04-20T19:48:03.067Z,84.93
2023-04-20T19:53:09.095Z,86.35
2023-04-20T19:58:13.637Z,87.18
2023-04-20T20:03:17.961Z,87.63
2023-04-20T20:08:23.930Z,88.10
2023-04-20T20:13:28.172Z,88.55
2023-04-20T20:18:32.600Z,88.05
2023-04-20T20:23:38.618Z,87.78
2023-04-20T20:28:43.319Z,88.81
2023-04-20T20:33:47.444Z,90.07
2023-04-20T20:38:53.613Z,90.38
2023-04-20T20:43:58.251Z,90.26
2023-04-20T20:49:02.685Z,90.98
2023-04-20T20:54:08.331Z,90.35
2023-04-20T20:59:12.762Z,90.15
2023-04-20T21:04:17.133Z,90.36
2023-04-20T21:09:23.065Z,91.46
2023-04-20T21:14:27.538Z,91.24
2023-04-20T21:19:31.736Z,91.73
2023-04-20T21:24:37.776Z,91.69
2023-04-20T21:29:42.045Z,91.14
2023-04-20T21:34:46.382Z,91.33
2023-04-20T21:39:52.640Z,92.13
2023-04-20T21:44:57.030Z,92.76
2023-04-20T21:50:01.619Z,93.61
2023-04-20T21:55:08.135Z,94.30
2023-04-20T22:00:14.128Z,95.00
2023-04-20T22:05:22.812Z,95.44
2023-04-20T22:10:28.898Z,95.93
2023-04-20T22:15:33.479Z,95.71
2023-04-20T22:20:38.222Z,95.87
2023-04-20T22:25:44.566Z,94.42
2023-04-20T22:30:49.146Z,94.15
2023-04-20T22:35:53.872Z,93.93
2023-04-20T22:41:00.587Z,93.16
2023-04-20T22:46:04.956Z,93.82
2023-04-20T22:51:09.453Z,94.11
2023-04-20T22:56:15.426Z,93.24
2023-04-20T23:01:19.730Z,92.72
2023-04-20T23:06:23.946Z,92.81
2023-04-20T23:11:30.077Z,92.71
2023-04-20T23:16:34.586Z,92.03
2023-04-20T23:21:39.105Z,91.68
2023-04-20T23:26:44.721Z,92.11
2023-04-20T23:31:49.137Z,91.38
2023-04-20T23:36:54.460Z,90.86
2023-04-20T23:42:00.316Z,90.63
2023-04-20T23:47:04.529Z,89.88
2023-04-20T23:52:08.681Z,89.62
2023-04-20T23:57:14.372Z,88.43
